Time;durP1;ratioP1;P1;durP2;ratioP2;P2;SDS_P1;SDS_P2;PMS_P1;PMS_P2;Temp;Humidity;BMP_temperature;BMP_pressure;BME280_temperature;BME280_humidity;BME280_pressure;Samples;Min_cycle;Max_cycle;Signal;HPM_P1;HPM_P2
2020/12/16 00:02:42;;;;;;;27.27;18.73;;;4.00;99.90;;;;;;6136755;29;20829;-57
2020/12/16 00:05:45;;;;;;;36.37;18.17;;;4.10;99.90;;;;;;6134655;29;20463;-57
2020/12/16 00:08:47;;;;;;;24.83;18.40;;;4.10;99.90;;;;;;6153044;28;20474;-56
2020/12/16 00:11:50;;;;;;;31.83;17.20;;;4.10;99.90;;;;;;6152442;28;20493;-57
2020/12/16 00:14:52;;;;;;;34.33;18.90;;;4.10;99.90;;;;;;6160840;28;20799;-57
2020/12/16 00:18:07;;;;;;;31.20;18.03;;;4.20;99.90;;;;;;6200964;28;20484;-57
2020/12/16 00:21:11;;;;;;;25.90;17.50;;;4.30;99.90;;;;;;6195502;28;20563;-56
2020/12/16 00:24:13;;;;;;;26.80;16.67;;;4.20;99.90;;;;;;6200392;28;20481;-56
2020/12/16 00:27:15;;;;;;;24.37;16.50;;;4.20;99.90;;;;;;6200458;28;20976;-57
2020/12/16 00:30:17;;;;;;;26.13;15.90;;;4.20;99.90;;;;;;6200384;28;20480;-58
2020/12/16 00:33:20;;;;;;;27.20;18.23;;;4.20;99.90;;;;;;6200530;28;20491;-57
2020/12/16 00:36:23;;;;;;;25.40;17.47;;;4.20;99.90;;;;;;6200259;28;20585;-57
2020/12/16 00:39:25;;;;;;;27.20;17.20;;;4.20;99.90;;;;;;6194333;28;20465;-58
2020/12/16 00:42:30;;;;;;;23.77;17.30;;;4.20;99.90;;;;;;6200165;28;21038;-58
2020/12/16 00:45:32;;;;;;;23.13;15.30;;;4.30;99.90;;;;;;6200341;28;20472;-58
2020/12/16 00:48:34;;;;;;;33.73;18.70;;;4.30;99.90;;;;;;6200444;28;20477;-57
2020/12/16 00:51:40;;;;;;;26.33;17.67;;;4.30;99.90;;;;;;6200097;28;20480;-57
2020/12/16 00:54:45;;;;;;;26.23;16.43;;;4.30;99.90;;;;;;6200246;28;20575;-57
2020/12/16 00:57:47;;;;;;;25.60;15.30;;;4.30;99.90;;;;;;6197727;28;20477;-58
2020/12/16 01:00:49;;;;;;;23.33;15.70;;;4.40;99.90;;;;;;6199675;28;20468;-56
2020/12/16 01:03:52;;;;;;;27.23;16.67;;;4.40;99.90;;;;;;6201124;28;20531;-56
2020/12/16 01:06:55;;;;;;;22.83;15.93;;;4.50;99.90;;;;;;6201313;28;20463;-56
2020/12/16 01:09:57;;;;;;;24.07;15.70;;;4.50;99.90;;;;;;6200574;28;20476;-56
2020/12/16 01:12:59;;;;;;;19.37;13.73;;;4.50;99.90;;;;;;6202049;28;20455;-56
2020/12/16 01:16:01;;;;;;;22.70;13.93;;;4.50;99.90;;;;;;6203588;28;20488;-57
2020/12/16 01:19:05;;;;;;;20.93;15.07;;;4.50;99.90;;;;;;6212707;28;20769;-57
2020/12/16 01:22:09;;;;;;;22.33;13.67;;;4.50;99.90;;;;;;6219101;28;20616;-57
2020/12/16 01:25:12;;;;;;;17.23;12.93;;;4.50;99.90;;;;;;6199735;28;20480;-57
2020/12/16 01:28:14;;;;;;;18.73;12.87;;;4.50;99.90;;;;;;6214689;28;20475;-57
2020/12/16 01:31:16;;;;;;;21.37;13.67;;;4.50;99.90;;;;;;6216513;28;20477;-57
2020/12/16 01:34:21;;;;;;;22.13;14.50;;;4.50;99.90;;;;;;6217003;28;20988;-57
2020/12/16 01:37:24;;;;;;;19.13;13.10;;;4.40;99.90;;;;;;6215254;28;20473;-57
2020/12/16 01:40:26;;;;;;;22.17;13.23;;;4.40;99.90;;;;;;6212480;28;20465;-57
2020/12/16 01:43:34;;;;;;;24.63;13.60;;;4.40;99.90;;;;;;6225323;28;20789;-57
2020/12/16 01:46:37;;;;;;;22.07;14.63;;;4.40;99.90;;;;;;6228198;28;20468;-57
2020/12/16 01:49:39;;;;;;;23.43;14.50;;;4.40;99.90;;;;;;6227959;28;20480;-57
2020/12/16 01:52:43;;;;;;;21.90;13.30;;;4.40;99.90;;;;;;6228067;28;20480;-57
2020/12/16 01:55:47;;;;;;;20.63;14.77;;;4.30;99.90;;;;;;6227859;28;20486;-57
2020/12/16 01:58:52;;;;;;;20.90;12.93;;;4.40;99.90;;;;;;6227965;28;20610;-57
2020/12/16 02:01:55;;;;;;;21.20;13.57;;;4.40;99.90;;;;;;6227666;28;20815;-58
2020/12/16 02:04:59;;;;;;;23.30;14.77;;;4.40;99.90;;;;;;6227528;28;20542;-57
2020/12/16 02:08:04;;;;;;;20.93;13.27;;;4.40;99.90;;;;;;6227647;28;20518;-57
2020/12/16 02:11:08;;;;;;;28.17;15.80;;;4.40;99.90;;;;;;6226375;28;20483;-57
2020/12/16 02:14:10;;;;;;;20.67;14.50;;;4.50;99.90;;;;;;6227521;28;20472;-58
2020/12/16 02:17:13;;;;;;;23.47;16.53;;;4.50;99.90;;;;;;6227571;28;20483;-57
2020/12/16 02:20:15;;;;;;;20.00;13.93;;;4.50;99.90;;;;;;6227521;28;20491;-57
2020/12/16 02:23:19;;;;;;;20.17;13.97;;;4.50;99.90;;;;;;6227615;28;20476;-57
2020/12/16 02:26:22;;;;;;;23.20;17.50;;;4.40;99.90;;;;;;6227091;28;20464;-57
2020/12/16 02:29:25;;;;;;;22.23;14.87;;;4.20;99.90;;;;;;6223038;28;20634;-57
2020/12/16 02:32:29;;;;;;;23.13;16.03;;;4.20;99.90;;;;;;6227705;28;20566;-57
2020/12/16 02:35:31;;;;;;;26.27;16.27;;;4.30;99.90;;;;;;6226947;28;20479;-57
2020/12/16 02:38:43;;;;;;;23.40;12.70;;;4.00;99.90;;;;;;6227025;28;20545;-57
2020/12/16 02:41:46;;;;;;;22.43;13.73;;;3.80;99.90;;;;;;6227007;28;20492;-57
2020/12/16 02:44:48;;;;;;;20.20;13.80;;;3.60;99.90;;;;;;6227082;28;20472;-56
2020/12/16 02:47:51;;;;;;;21.43;13.77;;;3.80;99.90;;;;;;6227288;28;20464;-57
2020/12/16 02:50:53;;;;;;;21.13;13.10;;;3.80;99.90;;;;;;6226527;28;20484;-57
2020/12/16 02:53:55;;;;;;;19.77;13.97;;;3.80;99.90;;;;;;6227047;28;20480;-59
2020/12/16 02:56:59;;;;;;;20.87;14.30;;;3.80;99.90;;;;;;6226329;28;20487;-59
2020/12/16 03:00:02;;;;;;;21.37;14.33;;;3.90;99.90;;;;;;6226156;28;20823;-57
2020/12/16 03:03:06;;;;;;;25.87;14.43;;;4.00;99.90;;;;;;6226537;28;20814;-58
2020/12/16 03:06:14;;;;;;;25.00;15.83;;;3.80;99.90;;;;;;6226439;28;20486;-57
2020/12/16 03:09:17;;;;;;;25.13;15.07;;;3.70;99.90;;;;;;6226086;28;20479;-57
2020/12/16 03:12:20;;;;;;;26.23;14.40;;;3.90;99.90;;;;;;6226353;28;20479;-57
2020/12/16 03:15:23;;;;;;;26.70;13.53;;;3.90;99.90;;;;;;6225999;28;20959;-57
2020/12/16 03:18:25;;;;;;;21.93;13.63;;;4.00;99.90;;;;;;6225832;28;20480;-61
2020/12/16 03:21:27;;;;;;;26.30;15.30;;;4.10;99.90;;;;;;6225897;28;20487;-61
2020/12/16 03:24:29;;;;;;;23.43;14.53;;;4.10;99.90;;;;;;6225609;28;20968;-62
2020/12/16 03:27:32;;;;;;;31.23;15.57;;;4.10;99.90;;;;;;6226175;28;20471;-61
2020/12/16 03:30:35;;;;;;;23.37;14.67;;;4.10;99.90;;;;;;6226530;28;20542;-58
2020/12/16 03:33:37;;;;;;;32.53;17.10;;;4.10;99.90;;;;;;6221334;28;20495;-59
2020/12/16 03:36:39;;;;;;;37.83;17.50;;;4.10;99.90;;;;;;6225423;28;20988;-61
2020/12/16 03:39:41;;;;;;;22.90;14.90;;;4.10;99.90;;;;;;6226149;28;20472;-61
2020/12/16 03:42:44;;;;;;;24.67;16.40;;;4.10;99.90;;;;;;6225804;28;20472;-62
2020/12/16 03:45:46;;;;;;;24.73;17.20;;;4.10;99.90;;;;;;6225336;28;20770;-58
2020/12/16 03:48:48;;;;;;;25.47;15.83;;;4.10;99.90;;;;;;6225289;28;20452;-61
2020/12/16 03:51:56;;;;;;;26.20;16.60;;;4.10;99.90;;;;;;6225574;28;20484;-61
2020/12/16 03:55:15;;;;;;;27.43;16.20;;;4.10;99.90;;;;;;6225347;28;20517;-61
2020/12/16 03:58:18;;;;;;;23.00;15.40;;;4.10;99.90;;;;;;6225352;28;20475;-62
2020/12/16 04:01:21;;;;;;;26.57;16.20;;;4.20;99.90;;;;;;6225506;28;20472;-60
2020/12/16 04:04:23;;;;;;;22.20;15.03;;;4.20;99.90;;;;;;6225241;28;20480;-60
2020/12/16 04:07:25;;;;;;;31.40;15.77;;;4.10;99.90;;;;;;6225403;28;20478;-61
2020/12/16 04:10:27;;;;;;;23.67;15.30;;;4.10;99.90;;;;;;6225010;28;20971;-61
2020/12/16 04:13:31;;;;;;;28.50;16.60;;;4.10;99.90;;;;;;6225745;28;20487;-61
2020/12/16 04:16:33;;;;;;;22.27;15.60;;;4.20;99.90;;;;;;6224795;28;20475;-61
2020/12/16 04:19:35;;;;;;;26.07;14.27;;;4.20;99.90;;;;;;6225327;28;20471;-61
2020/12/16 04:22:37;;;;;;;29.93;16.17;;;4.20;99.90;;;;;;6225381;28;20467;-60
2020/12/16 04:25:39;;;;;;;32.43;18.03;;;4.20;99.90;;;;;;6225119;28;20472;-61
2020/12/16 04:28:42;;;;;;;31.77;20.37;;;4.20;99.90;;;;;;6225218;28;20490;-61
2020/12/16 04:31:49;;;;;;;28.90;16.40;;;4.10;99.90;;;;;;6225316;28;20472;-62
2020/12/16 04:34:51;;;;;;;28.00;16.67;;;4.10;99.90;;;;;;6226170;28;20822;-62
2020/12/16 04:37:54;;;;;;;25.73;16.93;;;4.10;99.90;;;;;;6221244;28;20475;-61
2020/12/16 04:40:57;;;;;;;29.40;17.67;;;4.00;99.90;;;;;;6229388;28;20534;-61
2020/12/16 04:44:02;;;;;;;26.63;16.00;;;4.00;99.90;;;;;;6229919;28;20467;-61
2020/12/16 04:47:05;;;;;;;28.03;15.73;;;4.10;99.90;;;;;;6229621;28;20471;-61
2020/12/16 04:50:08;;;;;;;27.30;17.17;;;4.10;99.90;;;;;;6229211;28;20491;-62
2020/12/16 04:53:11;;;;;;;26.07;15.83;;;4.10;99.90;;;;;;6229699;28;20486;-60
2020/12/16 04:56:17;;;;;;;25.70;15.27;;;4.10;99.90;;;;;;6229775;28;20567;-61
2020/12/16 04:59:20;;;;;;;22.43;15.63;;;4.20;99.90;;;;;;6229467;28;20476;-61
2020/12/16 05:02:23;;;;;;;27.57;16.90;;;4.20;99.90;;;;;;6229162;28;20480;-61
2020/12/16 05:05:25;;;;;;;24.60;15.87;;;4.30;99.90;;;;;;6229459;28;20476;-61
2020/12/16 05:08:28;;;;;;;27.50;16.67;;;4.40;99.90;;;;;;6229308;28;20468;-61
2020/12/16 05:11:37;;;;;;;27.67;15.77;;;4.40;99.90;;;;;;6229059;28;20492;-61
2020/12/16 05:14:40;;;;;;;28.23;16.60;;;4.40;99.90;;;;;;6229054;28;20492;-61
2020/12/16 05:17:42;;;;;;;27.27;15.13;;;4.40;99.90;;;;;;6229203;28;20822;-61
2020/12/16 05:20:48;;;;;;;26.83;14.33;;;4.40;99.90;;;;;;6228557;28;20819;-61
2020/12/16 05:23:50;;;;;;;29.40;16.57;;;4.50;99.90;;;;;;6228962;28;20482;-61
2020/12/16 05:26:53;;;;;;;23.37;15.03;;;4.50;99.90;;;;;;6228957;28;20467;-61
2020/12/16 05:29:58;;;;;;;31.53;17.73;;;4.50;99.90;;;;;;6228583;28;20493;-61
2020/12/16 05:33:04;;;;;;;24.17;16.17;;;4.50;99.90;;;;;;6229336;28;20476;-61
2020/12/16 05:36:09;;;;;;;25.47;15.57;;;4.50;99.90;;;;;;6228256;28;20483;-62
2020/12/16 05:39:11;;;;;;;25.67;15.10;;;4.50;99.90;;;;;;6228263;28;20941;-62
2020/12/16 05:42:16;;;;;;;23.90;13.90;;;4.60;99.90;;;;;;6224249;28;20495;-61
2020/12/16 05:45:21;;;;;;;25.43;15.10;;;4.60;99.90;;;;;;6227884;28;20472;-63
2020/12/16 05:48:29;;;;;;;26.83;15.40;;;4.60;99.90;;;;;;6228186;28;20487;-62
2020/12/16 05:51:31;;;;;;;27.90;15.67;;;4.60;99.90;;;;;;6227853;28;20960;-62
2020/12/16 05:54:36;;;;;;;23.10;14.17;;;4.60;99.90;;;;;;6228236;28;20487;-61
2020/12/16 05:57:38;;;;;;;22.67;14.83;;;4.60;99.90;;;;;;6228012;28;20494;-61
2020/12/16 06:00:52;;;;;;;25.17;15.47;;;4.60;99.90;;;;;;6228117;28;20518;-61
2020/12/16 06:04:03;;;;;;;26.87;17.10;;;4.50;99.90;;;;;;6228058;28;20477;-61
2020/12/16 06:07:08;;;;;;;24.80;16.30;;;4.50;99.90;;;;;;6227634;28;20760;-61
2020/12/16 06:10:10;;;;;;;31.63;17.17;;;4.50;99.90;;;;;;6227287;28;20915;-61
2020/12/16 06:13:14;;;;;;;35.03;19.37;;;4.50;99.90;;;;;;6227969;28;20472;-62
2020/12/16 06:16:17;;;;;;;31.23;17.70;;;4.40;99.90;;;;;;6227535;28;20475;-62
2020/12/16 06:19:25;;;;;;;27.10;17.07;;;4.40;99.90;;;;;;6227678;28;20464;-63
2020/12/16 06:22:34;;;;;;;29.40;16.47;;;4.40;99.90;;;;;;6227551;28;20480;-61
2020/12/16 06:25:44;;;;;;;27.60;17.97;;;4.40;99.90;;;;;;6227390;28;20490;-62
2020/12/16 06:28:47;;;;;;;31.50;17.83;;;4.30;99.90;;;;;;6227449;28;20468;-62
2020/12/16 06:31:50;;;;;;;27.60;16.10;;;4.30;99.90;;;;;;6226846;28;20491;-63
2020/12/16 06:34:57;;;;;;;31.90;17.97;;;4.30;99.90;;;;;;6227204;28;20479;-62
2020/12/16 06:38:17;;;;;;;26.47;15.57;;;4.30;99.90;;;;;;6226832;28;20976;-62
2020/12/16 06:41:22;;;;;;;30.43;16.70;;;4.40;99.90;;;;;;6226755;28;20986;-62
2020/12/16 06:44:25;;;;;;;31.23;17.07;;;4.30;99.90;;;;;;6226948;28;20476;-62
2020/12/16 06:47:28;;;;;;;37.60;18.50;;;4.30;99.90;;;;;;6222366;28;20622;-62
2020/12/16 06:50:31;;;;;;;35.33;19.23;;;4.30;99.90;;;;;;6226348;28;20491;-61
2020/12/16 06:53:34;;;;;;;34.77;18.90;;;4.20;99.90;;;;;;6226523;28;20773;-62
2020/12/16 06:56:37;;;;;;;31.90;18.03;;;4.20;99.90;;;;;;6226269;28;20476;-61
2020/12/16 06:59:45;;;;;;;33.93;20.37;;;4.20;99.90;;;;;;6226446;28;20980;-62
2020/12/16 07:02:48;;;;;;;32.37;21.70;;;4.00;99.90;;;;;;6226594;28;20473;-62
2020/12/16 07:05:50;;;;;;;36.10;20.10;;;4.00;99.90;;;;;;6226199;28;20948;-61
2020/12/16 07:09:14;;;;;;;40.70;21.90;;;4.00;99.90;;;;;;6226187;28;20478;-61
2020/12/16 07:12:29;;;;;;;28.67;18.53;;;4.10;99.90;;;;;;6226052;28;20483;-61
2020/12/16 07:15:41;;;;;;;37.93;20.30;;;4.10;99.90;;;;;;6226177;28;20488;-62
2020/12/16 07:18:46;;;;;;;35.30;20.23;;;4.20;99.90;;;;;;6226171;28;20960;-62
2020/12/16 07:21:50;;;;;;;42.47;23.60;;;4.30;99.90;;;;;;6225821;28;20539;-61
2020/12/16 07:24:53;;;;;;;39.07;20.17;;;4.30;99.90;;;;;;6225633;28;20459;-62
2020/12/16 07:27:56;;;;;;;38.43;19.80;;;4.30;99.90;;;;;;6203704;28;20433;-63
2020/12/16 07:31:05;;;;;;;36.57;20.23;;;4.40;99.90;;;;;;6201169;28;20469;-62
2020/12/16 07:34:08;;;;;;;38.83;21.63;;;4.40;99.90;;;;;;6201145;28;20422;-62
2020/12/16 07:37:12;;;;;;;39.83;20.67;;;4.40;99.90;;;;;;6201014;28;20980;-62
2020/12/16 07:40:15;;;;;;;39.13;20.60;;;4.50;99.90;;;;;;6200609;28;20810;-62
2020/12/16 07:43:19;;;;;;;37.00;22.10;;;4.50;99.90;;;;;;6201410;28;20476;-61
2020/12/16 07:46:22;;;;;;;38.40;19.23;;;4.50;99.90;;;;;;6200825;28;20469;-61
2020/12/16 07:49:27;;;;;;;37.47;20.80;;;4.50;99.90;;;;;;6191839;28;20795;-61
2020/12/16 07:52:30;;;;;;;37.07;21.13;;;4.50;99.90;;;;;;6201381;28;20481;-61
2020/12/16 07:55:38;;;;;;;37.93;20.63;;;4.60;99.90;;;;;;6201127;28;20492;-61
2020/12/16 07:58:40;;;;;;;39.10;19.20;;;4.50;99.90;;;;;;6201984;28;20473;-59
2020/12/16 08:01:42;;;;;;;42.27;22.60;;;4.50;99.90;;;;;;6200939;28;20477;-59
2020/12/16 08:04:54;;;;;;;38.57;21.50;;;4.50;99.90;;;;;;6200395;28;20513;-60
2020/12/16 08:08:01;;;;;;;39.10;20.47;;;4.50;99.90;;;;;;6201109;28;20531;-60
2020/12/16 08:11:12;;;;;;;36.73;21.10;;;4.50;99.90;;;;;;6206242;28;20493;-60
2020/12/16 08:14:14;;;;;;;40.90;24.07;;;4.50;99.90;;;;;;6206160;28;20487;-59
2020/12/16 08:17:17;;;;;;;42.07;26.03;;;4.50;99.90;;;;;;6205628;28;20632;-59
2020/12/16 08:20:22;;;;;;;40.50;22.70;;;4.40;99.90;;;;;;6205893;28;20488;-60
2020/12/16 08:23:24;;;;;;;37.87;20.97;;;4.40;99.90;;;;;;6206012;28;20491;-59
2020/12/16 08:26:27;;;;;;;41.47;21.33;;;4.30;99.90;;;;;;6205564;28;20468;-59
2020/12/16 08:29:29;;;;;;;37.30;23.00;;;4.30;99.90;;;;;;6205725;28;20843;-60
2020/12/16 08:32:36;;;;;;;40.33;20.80;;;4.30;99.90;;;;;;6205879;28;20487;-59
2020/12/16 08:35:48;;;;;;;48.03;22.70;;;4.40;99.90;;;;;;6205454;28;20975;-59
2020/12/16 08:38:53;;;;;;;46.90;22.43;;;4.30;99.90;;;;;;6205420;28;20485;-59
2020/12/16 08:41:55;;;;;;;45.83;22.90;;;4.10;99.90;;;;;;6205858;28;20670;-60
2020/12/16 08:45:07;;;;;;;46.60;23.00;;;4.00;99.90;;;;;;6205262;28;20476;-60
2020/12/16 08:48:10;;;;;;;40.03;21.20;;;4.10;99.90;;;;;;6205025;28;20619;-60
2020/12/16 08:51:17;;;;;;;47.87;24.77;;;4.20;99.90;;;;;;6208303;28;20473;-59
2020/12/16 08:54:25;;;;;;;40.90;21.43;;;4.20;99.90;;;;;;6191583;28;20481;-59
2020/12/16 08:57:27;;;;;;;35.10;21.17;;;4.30;99.90;;;;;;6192720;28;20957;-60
2020/12/16 09:00:32;;;;;;;41.43;23.20;;;4.30;99.90;;;;;;6202208;28;20476;-59
2020/12/16 09:03:41;;;;;;;32.53;19.87;;;4.40;99.90;;;;;;6180753;28;20469;-59
2020/12/16 09:06:44;;;;;;;36.40;21.33;;;4.40;99.90;;;;;;6180306;28;20801;-59
2020/12/16 09:09:55;;;;;;;43.70;22.00;;;4.40;99.90;;;;;;6188702;28;20611;-59
2020/12/16 09:12:57;;;;;;;40.03;21.53;;;4.50;99.90;;;;;;6204153;28;20787;-60
2020/12/16 09:15:59;;;;;;;41.87;21.00;;;4.50;99.90;;;;;;6204368;28;20555;-58
2020/12/16 09:19:02;;;;;;;45.97;23.37;;;4.60;99.90;;;;;;6204053;28;20555;-59
2020/12/16 09:22:05;;;;;;;36.37;21.07;;;4.60;99.90;;;;;;6203638;28;20469;-59
2020/12/16 09:25:15;;;;;;;39.47;20.30;;;4.70;99.90;;;;;;6204320;28;20445;-58
2020/12/16 09:28:34;;;;;;;42.60;22.80;;;4.70;99.90;;;;;;6182945;28;20494;-58
2020/12/16 09:31:36;;;;;;;41.23;23.63;;;4.70;99.90;;;;;;6179745;28;20484;-59
2020/12/16 09:34:39;;;;;;;46.10;23.27;;;4.70;99.90;;;;;;6179317;28;20473;-59
2020/12/16 09:37:42;;;;;;;40.87;22.90;;;4.70;99.90;;;;;;6179737;28;20886;-58
2020/12/16 09:40:45;;;;;;;50.43;24.60;;;4.70;99.90;;;;;;6179600;28;20514;-58
2020/12/16 09:43:48;;;;;;;49.13;24.87;;;4.70;99.90;;;;;;6179878;28;20492;-58
2020/12/16 09:46:51;;;;;;;38.37;20.77;;;4.60;99.90;;;;;;6179400;28;20970;-59
2020/12/16 09:49:58;;;;;;;40.70;22.20;;;4.60;99.90;;;;;;6179439;28;20628;-57
2020/12/16 09:53:04;;;;;;;40.50;21.13;;;4.50;99.90;;;;;;6179311;28;20482;-57
2020/12/16 09:56:06;;;;;;;48.40;24.20;;;4.50;99.90;;;;;;6203042;28;20940;-58
2020/12/16 09:59:18;;;;;;;44.33;22.20;;;4.50;99.90;;;;;;6199336;28;20488;-58
2020/12/16 10:02:31;;;;;;;43.10;21.47;;;4.50;99.90;;;;;;6203224;28;20600;-63
2020/12/16 10:05:34;;;;;;;41.40;23.70;;;4.50;99.90;;;;;;6202836;28;20480;-58
2020/12/16 10:08:37;;;;;;;43.30;22.40;;;4.50;99.90;;;;;;6203340;28;20469;-58
2020/12/16 10:11:39;;;;;;;40.57;23.73;;;4.60;99.90;;;;;;6203140;28;20488;-58
2020/12/16 10:14:41;;;;;;;40.47;22.30;;;4.70;99.90;;;;;;6202831;28;20485;-58
2020/12/16 10:17:47;;;;;;;39.40;24.00;;;4.80;99.90;;;;;;6202821;28;20476;-59
2020/12/16 10:20:49;;;;;;;37.80;21.67;;;4.70;99.90;;;;;;6202367;28;20822;-58
2020/12/16 10:23:52;;;;;;;47.97;23.90;;;4.80;99.90;;;;;;6202669;28;20469;-58
2020/12/16 10:26:54;;;;;;;41.77;22.77;;;4.70;99.90;;;;;;6202759;28;20469;-58
2020/12/16 10:29:57;;;;;;;37.70;21.97;;;4.50;99.90;;;;;;6202243;28;20480;-58
2020/12/16 10:32:59;;;;;;;39.60;21.53;;;4.60;99.90;;;;;;6201536;28;20465;-58
2020/12/16 10:36:02;;;;;;;45.50;21.53;;;4.70;99.90;;;;;;6202085;28;20492;-59
2020/12/16 10:39:05;;;;;;;44.33;21.53;;;4.80;99.90;;;;;;6218089;28;20491;-59
2020/12/16 10:42:08;;;;;;;39.07;20.30;;;4.60;99.90;;;;;;6223306;28;20911;-58
2020/12/16 10:45:10;;;;;;;39.30;20.67;;;4.70;99.90;;;;;;6226698;28;20510;-58
2020/12/16 10:48:12;;;;;;;43.80;23.23;;;4.80;99.90;;;;;;6226430;28;20469;-57
2020/12/16 10:51:16;;;;;;;43.40;23.00;;;4.90;99.90;;;;;;6226696;28;20487;-57
2020/12/16 10:54:20;;;;;;;46.23;22.20;;;4.70;99.90;;;;;;6204868;28;20517;-58
2020/12/16 10:57:22;;;;;;;41.40;22.37;;;4.70;99.90;;;;;;6185898;28;20992;-58
2020/12/16 11:00:31;;;;;;;41.43;23.40;;;4.60;99.90;;;;;;6201582;28;20479;-59
2020/12/16 11:03:33;;;;;;;43.30;22.93;;;4.70;99.90;;;;;;6192617;28;20500;-59
2020/12/16 11:06:36;;;;;;;34.33;21.20;;;4.70;99.90;;;;;;6201579;28;20477;-59
2020/12/16 11:09:38;;;;;;;45.67;23.07;;;4.70;99.90;;;;;;6201942;28;20469;-60
2020/12/16 11:12:40;;;;;;;40.70;22.90;;;4.80;99.90;;;;;;6201365;28;20487;-59
2020/12/16 11:15:43;;;;;;;42.70;22.13;;;4.80;99.90;;;;;;6201552;28;20488;-58
2020/12/16 11:18:46;;;;;;;41.60;23.50;;;4.80;99.90;;;;;;6201535;28;20488;-57
2020/12/16 11:21:50;;;;;;;41.30;22.30;;;4.80;99.90;;;;;;6201182;28;20477;-58
2020/12/16 11:24:52;;;;;;;47.97;24.70;;;4.80;99.90;;;;;;6202036;28;20467;-59
2020/12/16 11:27:54;;;;;;;48.93;22.27;;;4.80;99.90;;;;;;6201145;28;20491;-58
2020/12/16 11:30:57;;;;;;;38.73;20.83;;;4.80;99.90;;;;;;6201181;28;20467;-58
2020/12/16 11:33:59;;;;;;;42.70;23.37;;;4.80;99.90;;;;;;6201261;28;20463;-58
2020/12/16 11:37:02;;;;;;;43.60;22.97;;;4.90;99.90;;;;;;6201129;28;20928;-58
2020/12/16 11:40:05;;;;;;;49.93;22.07;;;4.80;99.90;;;;;;6201231;28;20485;-58
2020/12/16 11:43:07;;;;;;;36.73;21.77;;;4.90;99.90;;;;;;6201473;28;20445;-57
2020/12/16 11:46:10;;;;;;;41.83;20.17;;;4.80;99.90;;;;;;6200888;28;20531;-57
2020/12/16 11:49:12;;;;;;;38.57;20.43;;;4.80;99.90;;;;;;6200447;28;20446;-58
2020/12/16 11:52:15;;;;;;;46.33;22.63;;;4.90;99.90;;;;;;6200553;28;20489;-56
2020/12/16 11:55:17;;;;;;;32.63;20.23;;;4.90;99.90;;;;;;6185605;28;20544;-59
2020/12/16 11:58:19;;;;;;;33.77;22.10;;;4.80;99.90;;;;;;6176872;28;20466;-59
2020/12/16 12:01:23;;;;;;;38.47;26.73;;;4.60;99.90;;;;;;6188383;28;20484;-58
2020/12/16 12:04:25;;;;;;;35.00;24.33;;;4.60;99.90;;;;;;6196308;28;20608;-57
2020/12/16 12:07:28;;;;;;;39.40;24.23;;;4.70;99.90;;;;;;6200851;28;20472;-57
2020/12/16 12:10:30;;;;;;;36.67;21.20;;;4.60;99.90;;;;;;6200715;28;20469;-57
2020/12/16 12:13:32;;;;;;;36.03;20.40;;;4.50;99.90;;;;;;6198495;28;21187;-57
2020/12/16 12:16:35;;;;;;;34.97;21.93;;;4.50;99.90;;;;;;6198319;28;20484;-56
2020/12/16 12:19:40;;;;;;;42.80;23.90;;;4.60;99.90;;;;;;6198416;28;20480;-58
2020/12/16 12:22:43;;;;;;;41.63;23.23;;;4.60;99.90;;;;;;6198368;28;20847;-58
2020/12/16 12:25:45;;;;;;;41.63;20.70;;;4.70;99.90;;;;;;6198688;28;20523;-57
2020/12/16 12:28:48;;;;;;;36.40;20.50;;;4.70;99.90;;;;;;6200402;28;20611;-58
2020/12/16 12:31:51;;;;;;;33.00;21.40;;;4.70;99.90;;;;;;6200815;28;20484;-58
2020/12/16 12:34:53;;;;;;;45.63;22.40;;;4.80;99.90;;;;;;6200492;28;20468;-58
2020/12/16 12:37:55;;;;;;;39.30;19.80;;;4.80;99.90;;;;;;6200585;28;20516;-59
2020/12/16 12:40:58;;;;;;;40.40;21.00;;;4.80;99.90;;;;;;6200642;28;20473;-60
2020/12/16 12:44:00;;;;;;;40.97;22.80;;;4.90;99.90;;;;;;6200686;28;20484;-59
2020/12/16 12:47:03;;;;;;;39.00;20.83;;;4.90;99.90;;;;;;6200252;28;20828;-60
2020/12/16 12:50:06;;;;;;;38.53;21.20;;;4.90;99.90;;;;;;6200452;28;20508;-63
2020/12/16 12:53:09;;;;;;;33.77;19.80;;;5.00;99.90;;;;;;6200250;28;20475;-60
2020/12/16 12:56:12;;;;;;;37.77;19.63;;;5.00;99.90;;;;;;6179110;28;20477;-59
2020/12/16 12:59:14;;;;;;;38.07;21.07;;;4.90;99.90;;;;;;6180671;28;20557;-59
2020/12/16 13:02:17;;;;;;;33.87;18.97;;;4.90;99.90;;;;;;6199333;28;20480;-59
2020/12/16 13:05:19;;;;;;;32.10;19.13;;;4.90;99.90;;;;;;6204776;28;20476;-59
2020/12/16 13:08:21;;;;;;;35.57;17.70;;;5.00;99.90;;;;;;6204397;28;20530;-61
2020/12/16 13:11:24;;;;;;;36.90;19.87;;;5.10;99.90;;;;;;6199924;28;20957;-59
2020/12/16 13:14:26;;;;;;;34.97;17.43;;;5.10;99.90;;;;;;6204317;28;20487;-59
2020/12/16 13:17:29;;;;;;;34.87;19.73;;;5.00;99.90;;;;;;6204196;28;20556;-59
2020/12/16 13:20:31;;;;;;;26.67;17.60;;;5.00;99.90;;;;;;6204139;28;20469;-59
2020/12/16 13:23:34;;;;;;;35.93;21.50;;;5.10;99.90;;;;;;6204219;28;20483;-60
2020/12/16 13:26:42;;;;;;;29.57;18.30;;;5.20;99.90;;;;;;6205461;28;20983;-60
2020/12/16 13:29:44;;;;;;;31.27;20.70;;;4.90;99.90;;;;;;6218267;28;20484;-60
2020/12/16 13:32:47;;;;;;;34.23;19.80;;;4.70;99.90;;;;;;6203759;28;20469;-60
2020/12/16 13:35:50;;;;;;;41.87;23.50;;;4.70;99.90;;;;;;6203666;28;20484;-60
2020/12/16 13:38:56;;;;;;;50.80;28.60;;;4.70;99.90;;;;;;6203932;28;20542;-62
2020/12/16 13:41:59;;;;;;;43.17;26.03;;;4.70;99.90;;;;;;6203361;28;20519;-60
2020/12/16 13:45:03;;;;;;;37.57;20.47;;;4.80;99.90;;;;;;6203958;28;20484;-61
2020/12/16 13:48:07;;;;;;;41.70;19.17;;;4.70;99.90;;;;;;6203411;28;20473;-62
2020/12/16 13:51:09;;;;;;;33.23;19.60;;;4.70;99.90;;;;;;6203623;28;20477;-62
2020/12/16 13:54:12;;;;;;;32.03;19.00;;;4.80;99.90;;;;;;6196626;28;20478;-59
2020/12/16 13:57:14;;;;;;;32.90;19.10;;;4.80;99.90;;;;;;6202383;28;20483;-59
2020/12/16 14:00:17;;;;;;;35.43;19.77;;;4.90;99.90;;;;;;6215809;28;20477;-59
2020/12/16 14:03:20;;;;;;;31.40;18.47;;;4.90;99.90;;;;;;6212529;28;20464;-59
2020/12/16 14:06:22;;;;;;;33.40;19.63;;;5.00;99.90;;;;;;6202511;28;20487;-58
2020/12/16 14:09:24;;;;;;;32.10;17.87;;;5.00;99.90;;;;;;6202663;28;20472;-59
2020/12/16 14:12:27;;;;;;;33.60;18.70;;;5.00;99.90;;;;;;6202986;28;20485;-59
2020/12/16 14:15:29;;;;;;;38.80;20.63;;;5.00;99.90;;;;;;6194260;28;20492;-58
2020/12/16 14:18:32;;;;;;;29.30;18.70;;;5.10;99.90;;;;;;6202802;28;20510;-58
2020/12/16 14:21:34;;;;;;;31.30;17.93;;;5.00;99.90;;;;;;6202741;28;20966;-58
2020/12/16 14:24:36;;;;;;;31.37;18.10;;;5.10;99.90;;;;;;6202549;28;20492;-58
2020/12/16 14:27:39;;;;;;;29.43;18.23;;;5.10;99.90;;;;;;6202691;28;20481;-57
2020/12/16 14:30:41;;;;;;;29.23;17.80;;;5.10;99.90;;;;;;6202348;28;20552;-59
2020/12/16 14:33:44;;;;;;;31.17;19.37;;;5.10;99.90;;;;;;6202727;28;20487;-59
2020/12/16 14:36:51;;;;;;;30.37;18.30;;;5.00;99.90;;;;;;6202610;28;20481;-58
2020/12/16 14:39:54;;;;;;;37.10;19.97;;;5.00;99.90;;;;;;6202346;28;20481;-58
2020/12/16 14:42:56;;;;;;;33.50;19.60;;;5.00;99.90;;;;;;6202197;28;20779;-58
2020/12/16 14:45:59;;;;;;;33.17;19.30;;;4.90;99.90;;;;;;6202546;28;20458;-59
2020/12/16 14:49:02;;;;;;;38.03;20.87;;;4.80;99.90;;;;;;6202470;28;20445;-58
2020/12/16 14:52:05;;;;;;;40.57;21.23;;;4.80;99.90;;;;;;6213750;28;20468;-57
2020/12/16 14:55:07;;;;;;;37.83;21.30;;;4.70;99.90;;;;;;6214679;28;20444;-57
2020/12/16 14:58:09;;;;;;;37.80;21.07;;;4.70;99.90;;;;;;6209861;28;20455;-57
2020/12/16 15:01:11;;;;;;;30.93;19.03;;;4.50;99.90;;;;;;6214835;28;20480;-58
2020/12/16 15:04:15;;;;;;;35.17;19.50;;;4.40;99.90;;;;;;6212824;28;20806;-57
2020/12/16 15:07:18;;;;;;;39.70;21.23;;;4.50;99.90;;;;;;6212187;28;20781;-58
2020/12/16 15:10:20;;;;;;;42.80;19.80;;;4.60;99.90;;;;;;6226349;28;20563;-58
2020/12/16 15:13:22;;;;;;;40.40;20.13;;;4.70;99.90;;;;;;6226299;28;20548;-58
2020/12/16 15:16:26;;;;;;;33.07;20.20;;;4.70;99.90;;;;;;6221359;28;20935;-59
2020/12/16 15:19:29;;;;;;;46.60;22.37;;;4.70;99.90;;;;;;6225444;28;20479;-61
2020/12/16 15:22:31;;;;;;;47.17;26.37;;;4.80;99.90;;;;;;6226065;28;20489;-59
2020/12/16 15:25:33;;;;;;;38.40;21.03;;;4.80;99.90;;;;;;6217789;28;20456;-60
2020/12/16 15:28:35;;;;;;;36.43;22.17;;;4.80;99.90;;;;;;6201701;28;20465;-60
2020/12/16 15:31:38;;;;;;;35.70;21.10;;;4.80;99.90;;;;;;6201815;28;20499;-60
2020/12/16 15:34:41;;;;;;;36.80;21.57;;;4.80;99.90;;;;;;6201274;28;20473;-59
2020/12/16 15:37:43;;;;;;;40.37;22.07;;;4.90;99.90;;;;;;6201837;28;20469;-60
2020/12/16 15:40:46;;;;;;;40.67;21.13;;;4.90;99.90;;;;;;6200855;28;20472;-60
2020/12/16 15:43:49;;;;;;;41.43;21.50;;;5.00;99.90;;;;;;6200174;28;20970;-60